createdAt,value
2023-01-19T00:02:42.675Z,0.7
2023-01-19T00:05:31.940Z,0.7
2023-01-19T00:08:20.906Z,0.7
2023-01-19T00:11:08.356Z,0.6
2023-01-19T00:13:56.058Z,0.6
2023-01-19T00:16:43.442Z,0.6
2023-01-19T00:19:30.715Z,0.6
2023-01-19T00:22:18.031Z,0.6
2023-01-19T00:25:05.410Z,0.6
2023-01-19T00:27:53.413Z,0.6
2023-01-19T00:30:41.288Z,0.6
2023-01-19T00:33:29.130Z,0.5
2023-01-19T00:36:16.352Z,0.5
2023-01-19T00:39:04.480Z,0.5
2023-01-19T00:41:51.797Z,0.5
2023-01-19T00:45:10.747Z,0.5
2023-01-19T00:48:00.949Z,0.5
2023-01-19T00:50:48.497Z,0.6
2023-01-19T00:53:35.727Z,0.6
2023-01-19T00:56:23.143Z,0.6
2023-01-19T00:59:11.710Z,0.6
2023-01-19T01:01:59.237Z,0.5
2023-01-19T01:04:46.537Z,0.5
2023-01-19T01:07:39.267Z,0.5
2023-01-19T01:10:29.091Z,0.5
2023-01-19T01:13:21.406Z,0.4
2023-01-19T01:16:11.764Z,0.4
2023-01-19T01:19:01.135Z,0.4
2023-01-19T01:21:48.503Z,0.4
2023-01-19T01:24:35.993Z,0.4
2023-01-19T01:27:23.222Z,0.4
2023-01-19T01:30:10.499Z,0.4
2023-01-19T01:33:00.439Z,0.4
2023-01-19T01:35:48.132Z,0.4
2023-01-19T01:38:36.511Z,0.4
2023-01-19T01:41:25.498Z,0.4
2023-01-19T01:44:14.341Z,0.5
2023-01-19T01:47:35.480Z,0.5
2023-01-19T01:50:29.421Z,0.4
2023-01-19T01:53:22.323Z,0.4
2023-01-19T01:56:09.691Z,0.4
2023-01-19T01:59:00.335Z,0.4
2023-01-19T02:01:52.537Z,0.3
2023-01-19T02:05:14.119Z,0.3
2023-01-19T02:08:05.975Z,0.4
2023-01-19T02:11:29.651Z,0.4
2023-01-19T02:14:49.216Z,0.4
2023-01-19T02:17:36.585Z,0.4
2023-01-19T02:20:23.828Z,0.5
2023-01-19T02:23:15.905Z,0.5
2023-01-19T02:26:16.449Z,-1
2023-01-19T02:29:07.732Z,0.5
2023-01-19T02:31:57.563Z,0.5
2023-01-19T02:34:46.856Z,0.5
2023-01-19T02:37:34.061Z,0.5
2023-01-19T02:40:24.898Z,0.5
2023-01-19T02:43:13.317Z,0.6
2023-01-19T02:46:04.310Z,0.6
2023-01-19T02:48:51.878Z,0.6
2023-01-19T02:51:43.903Z,0.6
2023-01-19T02:54:31.483Z,0.6
2023-01-19T02:57:30.887Z,0.6
2023-01-19T03:00:28.271Z,0.6
2023-01-19T03:03:25.738Z,0.7
2023-01-19T03:06:20.068Z,0.7
2023-01-19T03:09:21.459Z,0.7
2023-01-19T03:12:14.786Z,0.7
2023-01-19T03:15:10.320Z,0.7
2023-01-19T03:18:04.233Z,0.8
2023-01-19T03:20:55.674Z,0.8
2023-01-19T03:23:46.310Z,0.8
2023-01-19T03:26:36.111Z,0.7
2023-01-19T03:29:29.220Z,0.7
2023-01-19T03:32:19.847Z,0.6
2023-01-19T03:35:16.742Z,0.6
2023-01-19T03:38:07.269Z,0.5
2023-01-19T03:41:01.258Z,0.5
2023-01-19T03:43:53.683Z,0.5
2023-01-19T03:46:42.716Z,0.5
2023-01-19T03:49:31.053Z,0.5
2023-01-19T03:52:21.145Z,0.5
2023-01-19T03:55:14.360Z,0.5
2023-01-19T03:58:02.678Z,0.5
2023-01-19T04:00:50.269Z,0.5
2023-01-19T04:03:37.755Z,0.6
2023-01-19T04:06:25.611Z,0.6
2023-01-19T04:09:12.901Z,0.6
2023-01-19T04:12:00.759Z,0.6
2023-01-19T04:14:48.686Z,0.6
2023-01-19T04:17:35.956Z,0.5
2023-01-19T04:20:23.882Z,0.5
2023-01-19T04:23:12.665Z,0.4
2023-01-19T04:26:00.025Z,0.3
2023-01-19T04:28:50.049Z,0.3
2023-01-19T04:31:37.487Z,0.3
2023-01-19T04:34:25.065Z,0.3
2023-01-19T04:37:12.953Z,0.2
2023-01-19T04:40:00.514Z,0.2
2023-01-19T04:42:48.488Z,0.2
2023-01-19T04:45:35.817Z,0.2
2023-01-19T04:48:23.464Z,0.2
2023-01-19T04:51:10.873Z,0.2
2023-01-19T04:53:58.247Z,0.2
2023-01-19T04:56:45.940Z,0.2
2023-01-19T04:59:33.232Z,0.2
2023-01-19T05:02:20.493Z,0.2
2023-01-19T05:05:08.125Z,0.2
2023-01-19T05:07:56.322Z,0.2
2023-01-19T05:10:43.648Z,0.2
2023-01-19T05:13:31.023Z,0.3
2023-01-19T05:16:18.356Z,0.3
2023-01-19T05:19:05.724Z,0.3
2023-01-19T05:21:53.127Z,0.3
2023-01-19T05:24:41.066Z,0.3
2023-01-19T05:27:28.464Z,0.3
2023-01-19T05:30:16.041Z,0.3
2023-01-19T05:33:04.017Z,0.3
2023-01-19T05:35:51.297Z,0.3
2023-01-19T05:38:40.169Z,0.2
2023-01-19T05:41:27.550Z,0.2
2023-01-19T05:44:15.176Z,0.2
2023-01-19T05:47:02.702Z,0.3
2023-01-19T05:49:50.007Z,0.3
2023-01-19T05:52:37.249Z,0.3
2023-01-19T05:55:24.553Z,0.4
2023-01-19T05:58:12.722Z,0.4
2023-01-19T06:00:59.969Z,0.5
2023-01-19T06:03:50.064Z,0.5
2023-01-19T06:06:37.212Z,0.5
2023-01-19T06:09:24.780Z,0.5
2023-01-19T06:12:12.129Z,0.4
2023-01-19T06:14:59.474Z,0.5
2023-01-19T06:17:46.753Z,0.5
2023-01-19T06:20:34.530Z,0.5
2023-01-19T06:23:21.735Z,0.5
2023-01-19T06:26:09.448Z,0.5
2023-01-19T06:28:56.760Z,0.6
2023-01-19T06:31:44.183Z,0.6
2023-01-19T06:34:31.445Z,0.6
2023-01-19T06:37:18.660Z,0.6
2023-01-19T06:40:06.463Z,0.6
2023-01-19T06:42:55.098Z,0.6
2023-01-19T06:45:44.093Z,0.7
2023-01-19T06:48:32.974Z,0.7
2023-01-19T06:51:20.292Z,0.7
2023-01-19T06:54:07.798Z,0.7
2023-01-19T06:56:55.113Z,0.8
2023-01-19T06:59:42.627Z,0.8
2023-01-19T07:02:30.167Z,0.8
2023-01-19T07:05:17.762Z,0.8
2023-01-19T07:08:06.663Z,0.8
2023-01-19T07:11:27.173Z,0.8
2023-01-19T07:14:20.191Z,0.8
2023-01-19T07:17:07.594Z,0.8
2023-01-19T07:19:55.417Z,0.8
2023-01-19T07:22:42.747Z,0.8
2023-01-19T07:25:31.118Z,0.8
2023-01-19T07:28:19.263Z,0.9
2023-01-19T07:31:06.793Z,0.9
2023-01-19T07:33:54.216Z,0.9
2023-01-19T07:36:42.469Z,0.9
2023-01-19T07:39:29.851Z,0.9
2023-01-19T07:42:17.740Z,0.9
2023-01-19T07:45:05.142Z,0.9
2023-01-19T07:47:53.734Z,0.9
2023-01-19T07:50:41.406Z,0.9
2023-01-19T07:53:29.373Z,0.8
2023-01-19T07:56:17.321Z,0.8
2023-01-19T07:59:04.803Z,0.7
2023-01-19T08:01:54.388Z,0.7
2023-01-19T08:04:43.796Z,0.7
2023-01-19T08:07:33.503Z,0.7
2023-01-19T08:10:20.736Z,0.7
2023-01-19T08:13:10.436Z,0.7
2023-01-19T08:15:57.778Z,0.7
2023-01-19T08:18:45.216Z,0.7
2023-01-19T08:21:32.514Z,0.7
2023-01-19T08:24:21.024Z,0.7
2023-01-19T08:27:11.165Z,0.7
2023-01-19T08:29:58.741Z,0.7
2023-01-19T08:32:46.139Z,0.7
2023-01-19T08:35:33.393Z,0.6
2023-01-19T08:38:23.373Z,0.6
2023-01-19T08:41:10.639Z,0.6
2023-01-19T08:44:00.998Z,0.7
2023-01-19T08:46:48.388Z,0.7
2023-01-19T08:49:35.763Z,0.7
2023-01-19T08:52:23.858Z,0.7
2023-01-19T08:55:11.309Z,0.8
2023-01-19T08:57:58.877Z,0.8
2023-01-19T09:00:48.567Z,0.8
2023-01-19T09:03:37.110Z,0.8
2023-01-19T09:06:24.378Z,0.8
2023-01-19T09:09:13.026Z,0.8
2023-01-19T09:12:00.703Z,0.6
2023-01-19T09:14:48.198Z,0.5
2023-01-19T09:17:35.751Z,0.4
2023-01-19T09:20:23.103Z,0.4
2023-01-19T09:23:10.423Z,0.3
2023-01-19T09:26:00.508Z,0.3
2023-01-19T09:28:50.454Z,0.3
2023-01-19T09:31:37.856Z,0.3
2023-01-19T09:34:25.624Z,0.3
2023-01-19T09:37:13.116Z,0.2
2023-01-19T09:40:01.004Z,0.3
2023-01-19T09:42:50.054Z,0.4
2023-01-19T09:45:41.846Z,0.4
2023-01-19T09:48:34.589Z,0.5
2023-01-19T09:51:30.298Z,0.5
2023-01-19T09:54:22.968Z,0.4
2023-01-19T09:57:20.561Z,0.5
2023-01-19T10:00:09.717Z,0.5
2023-01-19T10:03:01.177Z,0.4
2023-01-19T10:05:59.394Z,0.4
2023-01-19T10:08:50.142Z,0.5
2023-01-19T10:11:52.606Z,0.5
2023-01-19T10:14:46.169Z,0.5
2023-01-19T10:17:41.317Z,0.5
2023-01-19T10:20:39.916Z,0.5
2023-01-19T10:23:31.926Z,0.5
2023-01-19T10:26:25.479Z,0.6
2023-01-19T10:29:18.340Z,0.6
2023-01-19T10:32:10.932Z,0.6
2023-01-19T10:35:02.043Z,0.6
2023-01-19T10:38:06.233Z,0.6
2023-01-19T10:40:59.291Z,0.5
2023-01-19T10:43:51.923Z,0.5
2023-01-19T10:46:46.322Z,0.4
2023-01-19T10:49:35.234Z,0.5
2023-01-19T10:52:27.198Z,0.5
2023-01-19T10:55:17.992Z,0.4
2023-01-19T10:58:11.496Z,0.4
2023-01-19T11:01:14.128Z,0.4
2023-01-19T11:04:04.801Z,0.4
2023-01-19T11:07:07.175Z,0.4
2023-01-19T11:10:00.985Z,0.4
2023-01-19T11:13:05.777Z,0.4
2023-01-19T11:16:00.439Z,0.4
2023-01-19T11:18:51.972Z,0.4
2023-01-19T11:21:41.573Z,0.4
2023-01-19T11:24:28.880Z,0.4
2023-01-19T11:27:16.511Z,0.4
2023-01-19T11:30:06.033Z,0.5
2023-01-19T11:33:04.937Z,0.5
2023-01-19T11:36:09.856Z,0.5
2023-01-19T11:39:03.259Z,0.6
2023-01-19T11:42:09.982Z,0.6
2023-01-19T11:44:58.425Z,0.7
2023-01-19T11:47:51.219Z,0.7
2023-01-19T11:50:39.386Z,0.8
2023-01-19T11:53:29.478Z,0.8
2023-01-19T11:56:19.348Z,0.9
2023-01-19T11:59:11.223Z,0.9
2023-01-19T12:01:59.498Z,1.1
2023-01-19T12:04:49.989Z,1.4
2023-01-19T12:07:41.176Z,1.7
2023-01-19T12:10:30.824Z,2
2023-01-19T12:13:26.182Z,2
2023-01-19T12:16:15.361Z,2.1
2023-01-19T12:19:06.323Z,2.1
2023-01-19T12:22:01.304Z,2.2
2023-01-19T12:24:50.046Z,2.2
2023-01-19T12:27:42.986Z,2.3
2023-01-19T12:30:32.961Z,2.3
2023-01-19T12:33:21.217Z,2.4
2023-01-19T12:36:19.010Z,2.4
2023-01-19T12:39:23.435Z,2.4
2023-01-19T12:42:11.299Z,2.3
2023-01-19T12:45:02.413Z,2.3
2023-01-19T12:47:57.676Z,2.2
2023-01-19T12:50:46.926Z,2.2
2023-01-19T12:53:34.317Z,2.2
2023-01-19T12:56:21.719Z,2.1
2023-01-19T12:59:15.334Z,2.1
2023-01-19T13:02:10.601Z,2
2023-01-19T13:05:33.128Z,2
2023-01-19T13:08:37.801Z,2
2023-01-19T13:12:13.571Z,2
2023-01-19T13:15:10.304Z,2
2023-01-19T13:18:18.636Z,2.1
2023-01-19T13:21:08.532Z,2.1
2023-01-19T13:23:57.684Z,2.2
2023-01-19T13:26:47.245Z,2.2
2023-01-19T13:29:47.797Z,2.2
2023-01-19T13:32:36.208Z,2.2
2023-01-19T13:35:27.131Z,2.2
2023-01-19T13:38:14.874Z,2.2
2023-01-19T13:41:03.547Z,2.2
2023-01-19T13:43:51.254Z,2.2
2023-01-19T13:46:45.010Z,2.1
2023-01-19T13:49:34.236Z,2.1
2023-01-19T13:52:26.754Z,2
2023-01-19T13:55:16.035Z,1.9
2023-01-19T13:58:05.266Z,1.7
2023-01-19T14:01:06.765Z,1.6
2023-01-19T14:04:05.526Z,1.5
2023-01-19T14:07:11.080Z,1.5
2023-01-19T14:10:11.074Z,1.5
2023-01-19T14:13:01.440Z,1.4
2023-01-19T14:15:50.642Z,1.4
2023-01-19T14:18:42.643Z,1.4
2023-01-19T14:21:30.153Z,1.3
2023-01-19T14:24:26.387Z,1.3
2023-01-19T14:27:16.961Z,1.2
2023-01-19T14:30:08.689Z,1.1
2023-01-19T14:33:07.150Z,1.1
2023-01-19T14:36:18.477Z,1
2023-01-19T14:39:14.373Z,1
2023-01-19T14:42:08.293Z,0.9
2023-01-19T14:45:02.557Z,0.8
2023-01-19T14:48:00.735Z,0.8
2023-01-19T14:51:02.931Z,0.7
2023-01-19T14:53:51.165Z,0.6
2023-01-19T14:56:40.359Z,0.6
2023-01-19T14:59:27.739Z,0.6
2023-01-19T15:02:17.551Z,0.5
2023-01-19T15:05:05.189Z,0.5
2023-01-19T15:07:54.397Z,0.4
2023-01-19T15:10:41.759Z,0.4
2023-01-19T15:13:30.729Z,0.3
2023-01-19T15:16:18.166Z,0.3
2023-01-19T15:19:06.415Z,0.2
2023-01-19T15:21:57.044Z,0.1
2023-01-19T15:24:44.409Z,0
2023-01-19T15:27:31.682Z,0
2023-01-19T15:30:19.069Z,-0.1
2023-01-19T15:33:09.008Z,-0.1
2023-01-19T15:36:02.712Z,-0.2
2023-01-19T15:38:50.300Z,-0.2
2023-01-19T15:41:37.684Z,-0.3
2023-01-19T15:44:25.462Z,-0.3
2023-01-19T15:47:12.853Z,-0.4
2023-01-19T15:50:00.279Z,-0.4
2023-01-19T15:52:47.811Z,-0.4
2023-01-19T15:55:35.090Z,-0.4
2023-01-19T15:58:22.482Z,-0.4
2023-01-19T16:01:11.283Z,-0.5
2023-01-19T16:04:00.194Z,-0.5
2023-01-19T16:06:49.572Z,-0.6
2023-01-19T16:09:36.950Z,-0.7
2023-01-19T16:12:24.894Z,-0.7
2023-01-19T16:15:14.016Z,-0.8
2023-01-19T16:18:03.249Z,-0.8
2023-01-19T16:20:51.132Z,-0.9
2023-01-19T16:23:38.357Z,-0.9
2023-01-19T16:26:25.725Z,-0.9
2023-01-19T16:29:15.711Z,-0.8
2023-01-19T16:32:03.438Z,-0.9
2023-01-19T16:34:50.998Z,-0.9
2023-01-19T16:37:38.393Z,-1
2023-01-19T16:40:25.697Z,-1
2023-01-19T16:43:12.863Z,-1
2023-01-19T16:46:01.112Z,-1
2023-01-19T16:48:49.010Z,-1.1
2023-01-19T16:51:37.431Z,-1.2
2023-01-19T16:54:25.618Z,-1.2
2023-01-19T16:57:13.913Z,-1.2
2023-01-19T17:00:02.278Z,-1.1
2023-01-19T17:02:54.507Z,-1.1
2023-01-19T17:05:41.878Z,-1.2
2023-01-19T17:08:34.649Z,-1.2
2023-01-19T17:11:22.777Z,-1.2
2023-01-19T17:14:13.266Z,-1.3
2023-01-19T17:17:04.968Z,-1.3
2023-01-19T17:19:53.956Z,-1.3
2023-01-19T17:22:41.237Z,-1.4
2023-01-19T17:25:28.466Z,-1.4
2023-01-19T17:28:16.116Z,-1.6
2023-01-19T17:31:03.841Z,-1.4
2023-01-19T17:33:52.019Z,-1.5
2023-01-19T17:36:39.322Z,-1.5
2023-01-19T17:39:26.756Z,-1.5
2023-01-19T17:42:14.501Z,-1.5
2023-01-19T17:45:02.709Z,-1.6
2023-01-19T17:47:50.760Z,-1.6
2023-01-19T17:50:37.986Z,-1.6
2023-01-19T17:53:25.270Z,-1.6
2023-01-19T17:56:13.555Z,-1.6
2023-01-19T17:59:03.661Z,-1.6
2023-01-19T18:01:52.511Z,-1.6
2023-01-19T18:04:39.778Z,-1.5
2023-01-19T18:07:27.263Z,-1.5
2023-01-19T18:10:15.723Z,-1.5
2023-01-19T18:13:03.594Z,-1.6
2023-01-19T18:15:51.407Z,-1.6
2023-01-19T18:18:44.653Z,-1.6
2023-01-19T18:21:34.164Z,-1.6
2023-01-19T18:24:22.675Z,-1.5
2023-01-19T18:27:10.279Z,-1.5
2023-01-19T18:29:57.761Z,-1.5
2023-01-19T18:32:45.133Z,-1.5
2023-01-19T18:35:32.365Z,-1.6
2023-01-19T18:38:20.627Z,-1.6
2023-01-19T18:41:07.928Z,-1.6
2023-01-19T18:43:57.382Z,-1.7
2023-01-19T18:46:44.855Z,-1.7
2023-01-19T18:49:32.279Z,-1.8
2023-01-19T18:52:19.482Z,-1.8
2023-01-19T18:55:06.740Z,-1.9
2023-01-19T18:57:54.738Z,-2
2023-01-19T19:00:42.187Z,-2
2023-01-19T19:03:29.535Z,-2
2023-01-19T19:06:16.968Z,-2
2023-01-19T19:09:05.447Z,-2.1
2023-01-19T19:11:53.832Z,-2.1
2023-01-19T19:14:41.225Z,-2.1
2023-01-19T19:17:28.447Z,-2.1
2023-01-19T19:20:16.172Z,-2.1
2023-01-19T19:23:05.162Z,-2.1
2023-01-19T19:25:52.417Z,-2.1
2023-01-19T19:28:39.851Z,-2
2023-01-19T19:31:27.575Z,-2
2023-01-19T19:34:16.363Z,-2
2023-01-19T19:37:03.987Z,-2
2023-01-19T19:39:51.361Z,-2
2023-01-19T19:42:40.299Z,-2
2023-01-19T19:45:27.609Z,-1.9
2023-01-19T19:48:15.135Z,-2
2023-01-19T19:51:16.976Z,-2
2023-01-19T19:54:08.262Z,-2
2023-01-19T19:56:55.592Z,-2
2023-01-19T19:59:43.170Z,-2
2023-01-19T20:02:30.332Z,-2
2023-01-19T20:05:17.789Z,-1.9
2023-01-19T20:08:05.156Z,-1.9
2023-01-19T20:10:52.504Z,-1.9
2023-01-19T20:13:39.734Z,-1.9
2023-01-19T20:16:29.353Z,-1.9
2023-01-19T20:19:16.975Z,-2
2023-01-19T20:22:04.282Z,-2
2023-01-19T20:24:52.180Z,-2
2023-01-19T20:27:39.671Z,-2
2023-01-19T20:30:27.145Z,-2
2023-01-19T20:33:14.677Z,-2
2023-01-19T20:36:02.939Z,-2
2023-01-19T20:38:50.934Z,-2
2023-01-19T20:41:39.651Z,-2.1
2023-01-19T20:44:28.247Z,-2.1
2023-01-19T20:47:15.885Z,-2.1
2023-01-19T20:50:04.248Z,-2.1
2023-01-19T20:52:52.980Z,-2.1
2023-01-19T20:55:40.206Z,-2.1
2023-01-19T20:58:27.484Z,-2.1
2023-01-19T21:01:16.353Z,-2.1
2023-01-19T21:04:06.221Z,-2
2023-01-19T21:06:54.068Z,-2
2023-01-19T21:09:41.389Z,-2
2023-01-19T21:12:28.749Z,-2
2023-01-19T21:15:16.406Z,-2.1
2023-01-19T21:18:04.214Z,-2
2023-01-19T21:20:51.619Z,-2
2023-01-19T21:23:38.960Z,-2.1
2023-01-19T21:26:26.183Z,-2
2023-01-19T21:29:14.879Z,-2.1
2023-01-19T21:32:03.502Z,-2.1
2023-01-19T21:34:51.091Z,-2.1
2023-01-19T21:37:38.396Z,-2.1
2023-01-19T21:40:25.739Z,-2.1
2023-01-19T21:43:12.988Z,-2.1
2023-01-19T21:46:00.834Z,-2.1
2023-01-19T21:48:58.852Z,-2.1
2023-01-19T21:51:48.694Z,-2.1
2023-01-19T21:54:36.036Z,-2.1
2023-01-19T21:57:23.360Z,-2.1
2023-01-19T22:00:10.665Z,-2.2
2023-01-19T22:03:03.855Z,-2.2
2023-01-19T22:05:51.980Z,-2.2
2023-01-19T22:08:40.433Z,-2.2
2023-01-19T22:11:29.331Z,-2.2
2023-01-19T22:14:17.399Z,-2.2
2023-01-19T22:17:04.601Z,-2.2
2023-01-19T22:19:51.939Z,-2.2
2023-01-19T22:22:39.208Z,-2.2
2023-01-19T22:25:26.486Z,-2.2
2023-01-19T22:28:13.717Z,-2.2
2023-01-19T22:31:01.530Z,-2.2
2023-01-19T22:33:51.479Z,-2.2
2023-01-19T22:36:39.900Z,-2.2
2023-01-19T22:39:27.566Z,-2.1
2023-01-19T22:42:14.879Z,-2.1
2023-01-19T22:45:03.216Z,-2.1
2023-01-19T22:47:51.650Z,-2
2023-01-19T22:50:38.890Z,-2.1
2023-01-19T22:53:26.108Z,-2.1
2023-01-19T22:56:16.497Z,-2.1
2023-01-19T22:59:06.199Z,-2.1
2023-01-19T23:01:54.295Z,-2.1
2023-01-19T23:04:42.085Z,-2.2
2023-01-19T23:07:29.328Z,-2.2
2023-01-19T23:10:16.893Z,-2.3
2023-01-19T23:13:04.455Z,-2.3
2023-01-19T23:15:51.901Z,-2.3
2023-01-19T23:18:39.224Z,-2.3
2023-01-19T23:21:27.648Z,-2.3
2023-01-19T23:24:17.348Z,-2.2
2023-01-19T23:27:04.645Z,-2.2
2023-01-19T23:29:52.091Z,-2.2
2023-01-19T23:32:39.485Z,-2.2
2023-01-19T23:35:32.864Z,-2.3
2023-01-19T23:38:22.405Z,-2.3
2023-01-19T23:41:09.959Z,-2.3
2023-01-19T23:43:57.252Z,-2.3
2023-01-19T23:46:44.460Z,-2.3
2023-01-19T23:49:31.943Z,-2.3
2023-01-19T23:52:19.278Z,-2.3
2023-01-19T23:55:06.488Z,-2.3
2023-01-19T23:57:54.641Z,-2.4
